Hoppa till innehåll

METAR Reports and Weather - ESGG

Nedan listas information från vald flygplats. Andra METARs finns längre ned på sidan. Kontakta oss om någon saknas eller skriv in egen ICAO-kod.

Other METARs of interest

Klicka på önskad rubrik nedan för att visa nuvarande väder för den platsen.

Distance from station: NE 27kmESGG - Göteborg (Landvetter)
Updated: 2022-05-17 15:20
 Wind from NNE
Wind: NNE 17 km/h
Temperature: 17°C
Dew Point: -3°C
Humidity: 25%
Barometer: 1024 hPa
Summary: Clear
Visibility: greater than 10 km
2022/05/17 13:20 ESGG 171320Z 02009KT 330V070 CAVOK 17/M03 Q1024
Clear
Clear
  Visa detaljer för Göteborg (Landvetter)
Distance from station: N 28kmESGP - Göteborg (Säve)
Updated: 2022-05-17 15:20
 Wind from NE
Wind: NE 17 km/h
Temperature: 18°C
Dew Point: -4°C
Humidity: 22%
Barometer: 1024 hPa
Summary: Clear
Visibility: greater than 10 km
2022/05/17 13:20 ESGP 171320Z 04009KT 360V080 CAVOK 18/M04 Q1024
Clear
Clear
  Visa detaljer för Göteborg (Säve)
Distance from station: NE 419kmESSA - Stockholm (Arlanda)
Updated: 2022-05-17 15:20
 Wind from NNE
Wind: NNE 15 km/h
Gust: 43 km/h
Temperature: 10°C
Wind Chill: 8°C
Dew Point: -2°C
Humidity: 43%
Barometer: 1026 hPa
Summary: Clear
Visibility: greater than 10 km
2022/05/17 13:20 ESSA 171320Z 02008G23KT 340V060 CAVOK 10/M02 Q1026 NOSIG
Clear
Clear
  Visa detaljer för Stockholm (Arlanda)
Distance from station: ENE 404kmESSB - Stockholm (Bromma)
Updated: 2022-05-17 15:20
 Wind from N
Wind: N 13 km/h
Temperature: 11°C
Dew Point: -3°C
Humidity: 38%
Barometer: 1026 hPa
Summary: Clear
Visibility: greater than 10 km
2022/05/17 13:20 ESSB 171320Z 01007KT 310V050 CAVOK 11/M03 Q1026
Clear
Clear
  Visa detaljer för Stockholm (Bromma)
Distance from station: ENE 323kmESKN - Stockholm (Skavsta)
Updated: 2022-05-17 15:20
 Wind from NW
Wind: NW 15 km/h
Temperature: 13°C
Dew Point: -2°C
Humidity: 36%
Barometer: 1026 hPa
Summary: Clear
Visibility: greater than 10 km
2022/05/17 13:20 ESKN 171320Z 31008KT 260V040 CAVOK 13/M02 Q1026
Clear
Clear
  Visa detaljer för Stockholm (Skavsta)
Distance from station: SSE 238kmESMS - Malmö flygplats (Sturup)
Updated: 2022-05-17 15:20
 Wind from E
Wind: E 24 km/h
Temperature: 15°C
Dew Point: -1°C
Humidity: 34%
Barometer: 1024 hPa
Summary: Clear
Visibility: greater than 10 km
2022/05/17 13:20 ESMS 171320Z 09013KT CAVOK 15/M01 Q1024
Clear
Clear
  Visa detaljer för Malmö flygplats (Sturup)
Distance from station: E 382kmESSV - Visby flygplats
Updated: 2022-05-17 15:20
 Wind from N
Wind: N 19 km/h
Temperature: 11°C
Dew Point: -2°C
Humidity: 41%
Barometer: 1026 hPa
Summary: Clear
Visibility: greater than 10 km
2022/05/17 13:20 ESSV 171320Z 01010KT CAVOK 11/M02 Q1026
Clear
Clear
  Visa detaljer för Visby flygplats
Distance from station: NNE 92kmESGT - Trollhättan
Updated: 2022-05-17 15:20
 Wind from NNE
Wind: NNE 22 km/h
Temperature: 13°C
Dew Point: -3°C
Humidity: 33%
Barometer: 1026 hPa
Summary: Clear
Visibility: greater than 10 km
2022/05/17 13:20 ESGT 171320Z 02012KT CAVOK 13/M03 Q1026
Clear
Clear
  Visa detaljer för Trollhättan
Distance from station: ENE 129kmESGJ - Jönköpings flygplats
Updated: 2022-05-17 15:20
 Wind from NE
Wind: NE 17 km/h
Temperature: 13°C
Dew Point: -3°C
Humidity: 33%
Barometer: 1025 hPa
Summary: Clear
Visibility: greater than 10 km
2022/05/17 13:20 ESGJ 171320Z 04009KT CAVOK 13/M03 Q1025
Clear
Clear
  Visa detaljer för Jönköpings flygplats
Distance from station: NNE 229kmESOK - Karlstad
Updated: 2022-05-17 15:20
 Wind from N
Wind: N 7 km/h
Temperature: 14°C
Dew Point: -5°C
Humidity: 27%
Barometer: 1026 hPa
Summary: Clear
Visibility: greater than 10 km
2022/05/17 13:20 ESOK 171320Z 36004KT 270V080 CAVOK 14/M05 Q1026
Clear
Clear
  Visa detaljer för Karlstad
Distance from station: N 643kmESNZ - Östersund (Frösön)
Updated: 2022-05-17 15:20
 Wind from varies
Wind: varies 4 km/h
Temperature: 11°C
Dew Point: -8°C
Humidity: 26%
Barometer: 1024 hPa
Summary: Clear
Visibility: greater than 10 km
2022/05/17 13:20 ESNZ 171320Z VRB02KT CAVOK 11/M08 Q1024
Clear
Clear
  Visa detaljer för Östersund (Frösön)
Distance from station: SSE 216kmEKCH - Köpenhamn (Kastrup)
Updated: 2022-05-17 15:20
 Wind from SE
Wind: SE 17 km/h
Temperature: 17°C
Dew Point: 1°C
Humidity: 34%
Barometer: 1024 hPa
Clouds: Clear
Visibility: 10 km
2022/05/17 13:20 EKCH 171320Z AUTO 14009KT 9999 NCD 17/01 Q1024 NOSIG
Clear
Clear
  Visa detaljer för Köpenhamn (Kastrup)
Distance from station: SW 263kmEKBI - Billund Airport
Updated: 2022-05-17 15:20
 Wind from E
Wind: E 24 km/h
Temperature: 19°C
Dew Point: 7°C
Humidity: 46%
Barometer: 1022 hPa
Clouds: Mostly cloudy
Visibility: 10 km
Cloud details: Mostly cloudy 3658 m
2022/05/17 13:20 EKBI 171320Z AUTO 09013KT 060V130 9999 BKN120/// 19/07 Q1022
Mostly cloudy
Mostly cloudy
  Visa detaljer för Billund Airport
Distance from station: N 302kmENGM - Oslo (Gardermoen)
Updated: 2022-05-17 15:50
 Wind from SSW
Wind: SSW 9 km/h
Temperature: 16°C
Dew Point: -3°C
Humidity: 27%
Summary: Clear
Visibility: greater than 10 km
2022/05/17 13:50 ENGM 171350Z 21005KT 170V250 CAVOK 16/M03 Q102
Clear
Clear
  Visa detaljer för Oslo (Gardermoen)
Distance from station: NE 540kmEFMA - Mariehamn / Åland
Updated: 2022-05-17 15:50
 Wind from NNW
Wind: NNW 28 km/h
Temperature: 8°C
Wind Chill: 4°C
Dew Point: 0°C
Humidity: 57%
Clouds: Few Clouds
Visibility: 10 km
Cloud details: Few Clouds 823 m
2022/05/17 13:50 EFMA 171350Z AUTO 34015KT 310V010 9999 FEW027 08/00 Q
Few Clouds
Few Clouds
  Visa detaljer för Mariehamn / Åland
Distance from station: S 558kmEDDT - Berlin (Tegel), Germany
Updated: 2020-11-09 07:50
NOT Current
 Wind from E
Wind: E 11 km/h
Temperature: 6°C
Wind Chill: 4°C
Dew Point: 5°C
Humidity: 93%
Barometer: 1027 hPa
Summary: Mist
Clouds: Overcast
Visibility: 3 km
Cloud details: Overcast 91 m
2020/11/09 06:50 EDDT 090650Z 09006KT 050V120 3000 BR OVC003 06/05 Q1027
Mist, Overcast
Mist
Overcast
  Visa detaljer för Berlin (Tegel), Germany
Distance from station: SW 737kmEHAM - Amsterdam (Schiphol)
Updated: 2022-05-17 15:25
 Wind from SE
Wind: SE 11 km/h
Temperature: 22°C
Dew Point: 14°C
Humidity: 61%
Barometer: 1019 hPa
Clouds: Mostly cloudy
Visibility: 10 km
Cloud details: Mostly cloudy 1067 m
2022/05/17 13:25 EHAM 171325Z 13006KT 040V180 9999 BKN035 22/14 Q1019 NOSIG
Mostly cloudy
Mostly cloudy
  Visa detaljer för Amsterdam (Schiphol)
Distance from station: ENE 808kmEFHK - Helsingfors (Vantaa)
Updated: 2022-05-17 15:50
 Wind from N
Wind: N 22 km/h
Temperature: 11°C
Dew Point: 0°C
Humidity: 47%
Barometer: 1020 hPa
Clouds: Mostly cloudy
Visibility: 10 km
Cloud details: Mostly cloudy 1280 m
2022/05/17 13:50 EFHK 171350Z 36012KT 9999 BKN042 11/00 Q1020 NOSIG
Mostly cloudy
Mostly cloudy
  Visa detaljer för Helsingfors (Vantaa)
Distance from station: SSW 537kmEDDW - Bremen
Updated: 2022-05-17 15:20
 Wind from varies
Wind: varies 11 km/h
Temperature: 23°C
Dew Point: 12°C
Humidity: 50%
Barometer: 1020 hPa
Clouds: Few Clouds
Visibility: 10 km
Cloud details: Few Clouds 1250 m
2022/05/17 13:20 EDDW 171320Z AUTO VRB06KT 9999 FEW041 23/12 Q1020 NOSIG
Few Clouds
Few Clouds
  Visa detaljer för Bremen
Distance from station: SSW 861kmEDDF - Frankfurt am Main
Updated: 2022-05-17 15:20
 Wind from varies
Wind: varies 6 km/h
Temperature: 25°C
Dew Point: 10°C
Humidity: 39%
Barometer: 1021 hPa
Summary: Clear
Visibility: greater than 10 km
2022/05/17 13:20 EDDF 171320Z VRB03KT CAVOK 25/10 Q1021 NOSIG
Clear
Clear
  Visa detaljer för Frankfurt am Main
Distance from station: SW 880kmEBBR - Bryssel international
Updated: 2022-05-17 15:20
 Wind from SSW
Wind: SSW 24 km/h
Temperature: 26°C
Dew Point: 6°C
Humidity: 28%
Barometer: 1019 hPa
Summary: Clear
Visibility: greater than 10 km
2022/05/17 13:20 EBBR 171320Z 21013KT CAVOK 26/06 Q1019 NOSIG
Clear
Clear
  Visa detaljer för Bryssel international
Distance from station: SW 738kmEHAM - Amsterdam (Schiphol)
Updated: 2022-05-17 15:25
 Wind from SE
Wind: SE 11 km/h
Temperature: 22°C
Dew Point: 14°C
Humidity: 61%
Barometer: 1019 hPa
Clouds: Mostly cloudy
Visibility: 10 km
Cloud details: Mostly cloudy 1067 m
2022/05/17 13:25 EHAM 171325Z 13006KT 040V180 9999 BKN035 22/14 Q1019 NOSIG
Mostly cloudy
Mostly cloudy
  Visa detaljer för Amsterdam (Schiphol)
Distance from station: SW 1044kmEGLL - London (Heathrow)
Updated: 2022-05-17 15:20
 Wind from SSE
Wind: SSE 22 km/h
Temperature: 26°C
Dew Point: 12°C
Humidity: 42%
Barometer: 1017 hPa
Clouds: Few Clouds
Visibility: 10 km
Cloud details: Few Clouds 1494 m
2022/05/17 13:20 EGLL 171320Z AUTO 15012KT 130V190 9999 FEW049 26/12 Q1017 NOSIG
Few Clouds
Few Clouds
  Visa detaljer för London (Heathrow)
Distance from station: SW 1132kmLFPG - Paris (Charles de Gaulle)
Updated: 2022-05-17 15:30
 Wind from SE
Wind: SE 13 km/h
Temperature: 27°C
Dew Point: 12°C
Humidity: 39%
Barometer: 1018 hPa
Summary: Clear
Visibility: greater than 10 km
2022/05/17 13:30 LFPG 171330Z 14007KT 080V190 CAVOK 27/12 Q1018 NOSIG
Clear
Clear
  Visa detaljer för Paris (Charles de Gaulle)
Distance from station: SSW 1142kmLSZH - Zürich Airport
Updated: 2022-05-17 15:20
 Wind from NE
Wind: NE 11 km/h
Temperature: 25°C
Dew Point: 10°C
Humidity: 39%
Barometer: 1021 hPa
Clouds: Few Clouds
Visibility: 10 km
Cloud details: Few Clouds 1676 m
2022/05/17 13:20 LSZH 171320Z 04006KT 330V110 9999 FEW055 25/10 Q1021 NOSIG
Few Clouds
Few Clouds
  Visa detaljer för Zürich Airport
Distance from station: S 1749kmLIRF - Rome Airport (Fiumicino - Leonardo da Vinci)
Updated: 2022-05-17 15:20
 Wind from W
Wind: W 20 km/h
Temperature: 25°C
Dew Point: 13°C
Humidity: 47%
Barometer: 1018 hPa
Summary: Clear
Visibility: greater than 10 km
2022/05/17 13:20 LIRF 171320Z 28011KT CAVOK 25/13 Q1018 NOSIG
Clear
Clear
  Visa detaljer för Rome Airport (Fiumicino - Leonardo da Vinci)
Distance from station: SE 2679kmLTAI - Antalya
Updated: 2022-05-17 15:20
 Wind from SE
Wind: SE 17 km/h
Temperature: 24°C
Dew Point: 17°C
Humidity: 65%
Barometer: 1013 hPa
Clouds: Few Clouds
Visibility: 10 km
Cloud details: Few Clouds 610 m
2022/05/17 13:20 LTAI 171320Z 14009KT 110V170 9999 FEW020CB 24/17 Q1013 TEMPO -TSRA
Few Clouds
Few Clouds
  Visa detaljer för Antalya
Distance from station: WSW 6074kmKJFK - New Your (JFK)
Updated: 2022-05-17 14:51
 Wind from WSW
Wind: WSW 22 km/h
Temperature: 17°C
Dew Point: 11°C
Humidity: 68%
Barometer: 1009.1 hPa
Clouds: Clear
Visibility: 16 km
2022/05/17 12:51 KJFK 171251Z 24012KT 10SM CLR 17/11 A2980 RMK AO2 SLP091 T01720111
Clear
Clear
  Visa detaljer för New Your (JFK)
Distance from station: WSW 8848kmKLAX - Los Angeles International Airport
Updated: 2022-05-17 14:53
 Wind from E
Wind: E 13 km/h
Temperature: 16°C
Dew Point: 12°C
Humidity: 77%
Barometer: 1014.2 hPa
Clouds: Overcast
Visibility: 16 km
Cloud details: Few Clouds 244 m
Overcast 366 m
2022/05/17 12:53 KLAX 171253Z 09007KT 10SM FEW008 OVC012 16/12 A2995 RMK AO2 SLP141 T01560122
Overcast
Overcast
  Visa detaljer för Los Angeles International Airport
Distance from station: SE 4968kmOMDB - Dubai International Airport
Updated: 2022-05-17 15:00
 Wind from WNW
Wind: WNW 17 km/h
Temperature: 33°C
Heat Index: 35°C
Dew Point: 20°C
Humidity: 46%
Barometer: 1002 hPa
Clouds: Partly cloudy
Visibility: 6 km
2022/05/17 13:00 OMDB 171300Z 29009KT 260V320 6000 NSC 33/20 Q1002 BECMG 4000 DU
Partly cloudy
Partly cloudy
  Visa detaljer för Dubai International Airport
Distance from station: ESE 8570kmRJTT - Tokyo International Airport
Updated: 2022-05-17 15:30
 Wind from varies
Wind: varies 2 km/h
Clouds: Few Clouds
Visibility: 10 km
Cloud details: Few Clouds 457 m
2022/05/17 13:30 RJTT 171330Z VRB01KT 9999 FEW015 BKN/// 16/15 Q1017 NOSIG
Few Clouds
Few Clouds
  Visa detaljer för Tokyo International Airport
Distance from station: ESE 7125kmZBAA - Peking (Beijing Capital)
Updated: 2022-05-17 15:30
 Wind from N
Wind: N 7 km/h
Temperature: 18°C
Dew Point: 12°C
Humidity: 68%
Barometer: 1006 hPa
Summary: Clear
Visibility: greater than 10 km
2022/05/17 13:30 ZBAA 171330Z 36002MPS CAVOK 18/12 Q1006 NOSIG
Clear
Clear
  Visa detaljer för Peking (Beijing Capital)
WEATHER TRIVIA -  ExtremesBy average annual rainfall, the wettest place in the world is Mawslynram, in Meghalaya State, India with 467 1/2 inches per annum.